sensor_id;sensor_type;location;lat;lon;timestamp;temperature;humidity
68011;DHT22;54794;48.348;7.878;2022-08-24T00:01:52;22.80;45.30
68011;DHT22;54794;48.348;7.878;2022-08-24T00:04:20;22.80;45.40
68011;DHT22;54794;48.348;7.878;2022-08-24T00:06:47;22.80;45.50
68011;DHT22;54794;48.348;7.878;2022-08-24T00:09:15;22.80;45.50
68011;DHT22;54794;48.348;7.878;2022-08-24T00:11:43;22.70;45.50
68011;DHT22;54794;48.348;7.878;2022-08-24T00:14:10;22.70;45.30
68011;DHT22;54794;48.348;7.878;2022-08-24T00:16:37;22.70;45.30
68011;DHT22;54794;48.348;7.878;2022-08-24T00:19:05;22.70;45.40
68011;DHT22;54794;48.348;7.878;2022-08-24T00:21:32;22.80;45.30
68011;DHT22;54794;48.348;7.878;2022-08-24T00:23:59;22.80;45.40
68011;DHT22;54794;48.348;7.878;2022-08-24T00:26:28;22.80;45.30
68011;DHT22;54794;48.348;7.878;2022-08-24T00:28:56;22.80;45.40
68011;DHT22;54794;48.348;7.878;2022-08-24T00:31:24;22.90;45.40
68011;DHT22;54794;48.348;7.878;2022-08-24T00:33:53;22.80;45.30
68011;DHT22;54794;48.348;7.878;2022-08-24T00:36:34;22.90;45.40
68011;DHT22;54794;48.348;7.878;2022-08-24T00:39:02;22.90;45.40
68011;DHT22;54794;48.348;7.878;2022-08-24T00:41:30;22.90;45.30
68011;DHT22;54794;48.348;7.878;2022-08-24T00:44:00;22.80;45.40
68011;DHT22;54794;48.348;7.878;2022-08-24T00:46:45;22.80;45.40
68011;DHT22;54794;48.348;7.878;2022-08-24T00:52:20;22.80;45.70
68011;DHT22;54794;48.348;7.878;2022-08-24T00:54:58;22.70;45.60
68011;DHT22;54794;48.348;7.878;2022-08-24T00:57:32;22.70;45.50
68011;DHT22;54794;48.348;7.878;2022-08-24T01:00:16;22.70;45.70
68011;DHT22;54794;48.348;7.878;2022-08-24T01:02:52;22.70;45.80
68011;DHT22;54794;48.348;7.878;2022-08-24T01:05:23;22.60;45.70
68011;DHT22;54794;48.348;7.878;2022-08-24T01:07:50;22.60;45.80
68011;DHT22;54794;48.348;7.878;2022-08-24T01:10:21;22.60;45.80
68011;DHT22;54794;48.348;7.878;2022-08-24T01:12:57;22.50;45.90
68011;DHT22;54794;48.348;7.878;2022-08-24T01:15:29;22.50;46.00
68011;DHT22;54794;48.348;7.878;2022-08-24T01:17:59;22.50;45.90
68011;DHT22;54794;48.348;7.878;2022-08-24T01:20:51;22.40;46.10
68011;DHT22;54794;48.348;7.878;2022-08-24T01:23:39;22.40;46.20
68011;DHT22;54794;48.348;7.878;2022-08-24T01:26:11;22.40;46.60
68011;DHT22;54794;48.348;7.878;2022-08-24T01:28:47;22.30;46.30
68011;DHT22;54794;48.348;7.878;2022-08-24T01:31:20;22.30;46.30
68011;DHT22;54794;48.348;7.878;2022-08-24T01:33:52;22.30;46.30
68011;DHT22;54794;48.348;7.878;2022-08-24T01:36:29;22.30;46.80
68011;DHT22;54794;48.348;7.878;2022-08-24T01:39:13;22.20;46.50
68011;DHT22;54794;48.348;7.878;2022-08-24T01:41:43;22.20;46.90
68011;DHT22;54794;48.348;7.878;2022-08-24T01:44:10;22.10;46.60
68011;DHT22;54794;48.348;7.878;2022-08-24T01:46:47;22.10;46.60
68011;DHT22;54794;48.348;7.878;2022-08-24T01:49:16;22.10;47.20
68011;DHT22;54794;48.348;7.878;2022-08-24T01:51:43;22.00;46.70
68011;DHT22;54794;48.348;7.878;2022-08-24T01:54:12;22.00;46.70
68011;DHT22;54794;48.348;7.878;2022-08-24T01:56:40;22.00;46.80
68011;DHT22;54794;48.348;7.878;2022-08-24T01:59:07;21.90;46.70
68011;DHT22;54794;48.348;7.878;2022-08-24T02:01:37;21.90;46.60
68011;DHT22;54794;48.348;7.878;2022-08-24T02:04:08;21.90;46.70
68011;DHT22;54794;48.348;7.878;2022-08-24T02:06:36;21.90;46.80
68011;DHT22;54794;48.348;7.878;2022-08-24T02:09:05;21.90;46.90
68011;DHT22;54794;48.348;7.878;2022-08-24T02:11:32;21.90;47.10
68011;DHT22;54794;48.348;7.878;2022-08-24T02:14:00;21.90;47.10
68011;DHT22;54794;48.348;7.878;2022-08-24T02:16:27;21.90;46.80
68011;DHT22;54794;48.348;7.878;2022-08-24T02:18:54;21.80;46.60
68011;DHT22;54794;48.348;7.878;2022-08-24T02:21:21;21.80;46.90
68011;DHT22;54794;48.348;7.878;2022-08-24T02:23:49;21.80;46.90
68011;DHT22;54794;48.348;7.878;2022-08-24T02:26:17;21.70;46.90
68011;DHT22;54794;48.348;7.878;2022-08-24T02:28:44;21.70;47.20
68011;DHT22;54794;48.348;7.878;2022-08-24T02:31:13;21.60;47.30
68011;DHT22;54794;48.348;7.878;2022-08-24T02:33:41;21.60;47.30
68011;DHT22;54794;48.348;7.878;2022-08-24T02:36:10;21.60;47.50
68011;DHT22;54794;48.348;7.878;2022-08-24T02:38:52;21.60;47.50
68011;DHT22;54794;48.348;7.878;2022-08-24T02:41:21;21.50;47.50
68011;DHT22;54794;48.348;7.878;2022-08-24T02:43:53;21.50;47.70
68011;DHT22;54794;48.348;7.878;2022-08-24T02:46:24;21.40;47.70
68011;DHT22;54794;48.348;7.878;2022-08-24T02:48:53;21.40;47.90
68011;DHT22;54794;48.348;7.878;2022-08-24T02:51:38;21.40;48.00
68011;DHT22;54794;48.348;7.878;2022-08-24T02:54:11;21.40;48.00
68011;DHT22;54794;48.348;7.878;2022-08-24T02:56:43;21.40;48.00
68011;DHT22;54794;48.348;7.878;2022-08-24T02:59:10;21.30;47.90
68011;DHT22;54794;48.348;7.878;2022-08-24T03:01:37;21.30;48.20
68011;DHT22;54794;48.348;7.878;2022-08-24T03:04:05;21.30;48.10
68011;DHT22;54794;48.348;7.878;2022-08-24T03:06:32;21.20;48.10
68011;DHT22;54794;48.348;7.878;2022-08-24T03:09:00;21.20;48.40
68011;DHT22;54794;48.348;7.878;2022-08-24T03:11:27;21.20;48.90
68011;DHT22;54794;48.348;7.878;2022-08-24T03:13:55;21.20;48.40
68011;DHT22;54794;48.348;7.878;2022-08-24T03:16:28;21.20;48.50
68011;DHT22;54794;48.348;7.878;2022-08-24T03:18:55;21.20;48.50
68011;DHT22;54794;48.348;7.878;2022-08-24T03:21:23;21.10;48.60
68011;DHT22;54794;48.348;7.878;2022-08-24T03:23:51;21.10;48.60
68011;DHT22;54794;48.348;7.878;2022-08-24T03:26:18;21.10;48.80
68011;DHT22;54794;48.348;7.878;2022-08-24T03:28:45;21.10;48.80
68011;DHT22;54794;48.348;7.878;2022-08-24T03:31:15;21.10;48.70
68011;DHT22;54794;48.348;7.878;2022-08-24T03:33:42;21.10;48.70
68011;DHT22;54794;48.348;7.878;2022-08-24T03:36:09;21.10;48.60
68011;DHT22;54794;48.348;7.878;2022-08-24T03:38:40;21.10;48.50
68011;DHT22;54794;48.348;7.878;2022-08-24T03:41:07;21.00;48.70
68011;DHT22;54794;48.348;7.878;2022-08-24T03:43:36;21.10;48.80
68011;DHT22;54794;48.348;7.878;2022-08-24T03:46:15;21.00;48.40
68011;DHT22;54794;48.348;7.878;2022-08-24T03:49:06;21.00;48.90
68011;DHT22;54794;48.348;7.878;2022-08-24T03:51:36;21.00;48.90
68011;DHT22;54794;48.348;7.878;2022-08-24T03:54:05;20.90;48.90
68011;DHT22;54794;48.348;7.878;2022-08-24T03:56:34;21.00;49.20
68011;DHT22;54794;48.348;7.878;2022-08-24T03:59:02;20.90;49.10
68011;DHT22;54794;48.348;7.878;2022-08-24T04:01:30;20.90;49.20
68011;DHT22;54794;48.348;7.878;2022-08-24T04:03:57;20.90;49.20
68011;DHT22;54794;48.348;7.878;2022-08-24T04:06:25;20.90;49.20
68011;DHT22;54794;48.348;7.878;2022-08-24T04:08:53;20.80;49.20
68011;DHT22;54794;48.348;7.878;2022-08-24T04:11:24;20.80;49.40
68011;DHT22;54794;48.348;7.878;2022-08-24T04:13:54;20.80;49.80
68011;DHT22;54794;48.348;7.878;2022-08-24T04:16:23;20.70;49.70
68011;DHT22;54794;48.348;7.878;2022-08-24T04:18:51;20.70;49.70
68011;DHT22;54794;48.348;7.878;2022-08-24T04:21:25;20.70;49.80
68011;DHT22;54794;48.348;7.878;2022-08-24T04:23:54;20.70;50.10
68011;DHT22;54794;48.348;7.878;2022-08-24T04:26:24;20.60;49.80
68011;DHT22;54794;48.348;7.878;2022-08-24T04:29:10;20.60;50.00
68011;DHT22;54794;48.348;7.878;2022-08-24T04:31:40;20.60;49.90
68011;DHT22;54794;48.348;7.878;2022-08-24T04:34:09;20.60;50.00
68011;DHT22;54794;48.348;7.878;2022-08-24T04:36:39;20.50;50.30
68011;DHT22;54794;48.348;7.878;2022-08-24T04:39:08;20.50;50.30
68011;DHT22;54794;48.348;7.878;2022-08-24T04:41:35;20.50;50.30
68011;DHT22;54794;48.348;7.878;2022-08-24T04:44:03;20.50;50.40
68011;DHT22;54794;48.348;7.878;2022-08-24T04:46:30;20.40;50.40
68011;DHT22;54794;48.348;7.878;2022-08-24T04:48:57;20.40;50.40
68011;DHT22;54794;48.348;7.878;2022-08-24T04:51:24;20.40;50.40
68011;DHT22;54794;48.348;7.878;2022-08-24T04:53:51;20.40;50.40
68011;DHT22;54794;48.348;7.878;2022-08-24T04:56:22;20.40;50.60
68011;DHT22;54794;48.348;7.878;2022-08-24T04:58:51;20.40;50.60
68011;DHT22;54794;48.348;7.878;2022-08-24T05:01:22;20.40;50.80
68011;DHT22;54794;48.348;7.878;2022-08-24T05:03:53;20.30;50.80
68011;DHT22;54794;48.348;7.878;2022-08-24T05:06:24;20.30;50.90
68011;DHT22;54794;48.348;7.878;2022-08-24T05:08:53;20.30;51.50
68011;DHT22;54794;48.348;7.878;2022-08-24T05:11:21;20.30;50.90
68011;DHT22;54794;48.348;7.878;2022-08-24T05:13:50;20.30;51.00
68011;DHT22;54794;48.348;7.878;2022-08-24T05:16:20;20.30;51.10
68011;DHT22;54794;48.348;7.878;2022-08-24T05:18:49;20.30;50.70
68011;DHT22;54794;48.348;7.878;2022-08-24T05:21:20;20.30;50.80
68011;DHT22;54794;48.348;7.878;2022-08-24T05:23:48;20.40;51.10
68011;DHT22;54794;48.348;7.878;2022-08-24T05:26:22;20.40;51.20
68011;DHT22;54794;48.348;7.878;2022-08-24T05:28:56;20.50;51.40
68011;DHT22;54794;48.348;7.878;2022-08-24T05:31:28;20.60;51.40
68011;DHT22;54794;48.348;7.878;2022-08-24T05:33:58;20.60;51.20
68011;DHT22;54794;48.348;7.878;2022-08-24T05:36:31;20.60;51.10
68011;DHT22;54794;48.348;7.878;2022-08-24T05:39:02;20.70;51.20
68011;DHT22;54794;48.348;7.878;2022-08-24T05:41:37;20.70;51.60
68011;DHT22;54794;48.348;7.878;2022-08-24T05:44:11;20.70;51.00
68011;DHT22;54794;48.348;7.878;2022-08-24T05:46:39;20.70;51.00
68011;DHT22;54794;48.348;7.878;2022-08-24T05:49:07;20.80;50.80
68011;DHT22;54794;48.348;7.878;2022-08-24T05:51:35;20.90;50.90
68011;DHT22;54794;48.348;7.878;2022-08-24T05:54:03;20.90;50.70
68011;DHT22;54794;48.348;7.878;2022-08-24T05:56:30;20.90;50.60
68011;DHT22;54794;48.348;7.878;2022-08-24T05:58:58;20.90;51.00
68011;DHT22;54794;48.348;7.878;2022-08-24T06:01:25;21.00;51.20
68011;DHT22;54794;48.348;7.878;2022-08-24T06:03:54;21.10;51.10
68011;DHT22;54794;48.348;7.878;2022-08-24T06:06:22;21.10;51.10
68011;DHT22;54794;48.348;7.878;2022-08-24T06:08:55;21.20;51.00
68011;DHT22;54794;48.348;7.878;2022-08-24T06:11:27;21.30;51.10
68011;DHT22;54794;48.348;7.878;2022-08-24T06:14:10;21.30;51.20
68011;DHT22;54794;48.348;7.878;2022-08-24T06:16:42;21.40;51.00
68011;DHT22;54794;48.348;7.878;2022-08-24T06:19:12;21.50;51.00
68011;DHT22;54794;48.348;7.878;2022-08-24T06:21:46;21.50;50.80
68011;DHT22;54794;48.348;7.878;2022-08-24T06:24:45;21.60;50.80
68011;DHT22;54794;48.348;7.878;2022-08-24T06:27:30;21.60;50.60
68011;DHT22;54794;48.348;7.878;2022-08-24T06:30:00;21.70;50.70
68011;DHT22;54794;48.348;7.878;2022-08-24T06:32:30;21.70;50.70
68011;DHT22;54794;48.348;7.878;2022-08-24T06:34:57;21.80;50.80
68011;DHT22;54794;48.348;7.878;2022-08-24T06:37:24;21.90;51.00
68011;DHT22;54794;48.348;7.878;2022-08-24T06:39:55;21.90;51.00
68011;DHT22;54794;48.348;7.878;2022-08-24T06:42:24;22.00;51.10
68011;DHT22;54794;48.348;7.878;2022-08-24T06:44:51;22.10;51.40
68011;DHT22;54794;48.348;7.878;2022-08-24T06:47:18;22.20;52.10
68011;DHT22;54794;48.348;7.878;2022-08-24T06:49:45;22.30;51.90
68011;DHT22;54794;48.348;7.878;2022-08-24T06:52:12;22.40;51.70
68011;DHT22;54794;48.348;7.878;2022-08-24T06:54:39;22.50;51.60
68011;DHT22;54794;48.348;7.878;2022-08-24T06:57:06;22.60;51.90
68011;DHT22;54794;48.348;7.878;2022-08-24T06:59:33;22.70;51.80
68011;DHT22;54794;48.348;7.878;2022-08-24T07:02:00;22.80;52.20
68011;DHT22;54794;48.348;7.878;2022-08-24T07:04:27;22.90;51.80
68011;DHT22;54794;48.348;7.878;2022-08-24T07:06:54;23.00;52.00
68011;DHT22;54794;48.348;7.878;2022-08-24T07:09:21;23.20;51.80
68011;DHT22;54794;48.348;7.878;2022-08-24T07:11:52;23.30;52.20
68011;DHT22;54794;48.348;7.878;2022-08-24T07:14:19;23.40;51.80
68011;DHT22;54794;48.348;7.878;2022-08-24T07:16:47;23.50;51.40
68011;DHT22;54794;48.348;7.878;2022-08-24T07:19:14;23.70;51.50
68011;DHT22;54794;48.348;7.878;2022-08-24T07:21:41;23.70;50.80
68011;DHT22;54794;48.348;7.878;2022-08-24T07:24:08;23.80;50.50
68011;DHT22;54794;48.348;7.878;2022-08-24T07:26:37;23.90;50.50
68011;DHT22;54794;48.348;7.878;2022-08-24T07:29:11;24.00;50.30
68011;DHT22;54794;48.348;7.878;2022-08-24T07:32:00;24.20;50.50
68011;DHT22;54794;48.348;7.878;2022-08-24T07:34:27;24.30;50.30
68011;DHT22;54794;48.348;7.878;2022-08-24T07:36:55;24.40;50.30
68011;DHT22;54794;48.348;7.878;2022-08-24T07:39:22;24.50;50.00
68011;DHT22;54794;48.348;7.878;2022-08-24T07:41:49;24.60;49.90
68011;DHT22;54794;48.348;7.878;2022-08-24T07:44:37;24.80;50.40
68011;DHT22;54794;48.348;7.878;2022-08-24T07:47:04;24.90;50.10
68011;DHT22;54794;48.348;7.878;2022-08-24T07:49:51;25.00;49.60
68011;DHT22;54794;48.348;7.878;2022-08-24T07:52:18;25.10;49.60
68011;DHT22;54794;48.348;7.878;2022-08-24T07:54:45;25.30;49.50
68011;DHT22;54794;48.348;7.878;2022-08-24T07:57:12;25.40;49.60
68011;DHT22;54794;48.348;7.878;2022-08-24T07:59:39;25.50;49.60
68011;DHT22;54794;48.348;7.878;2022-08-24T08:02:06;25.60;49.40
68011;DHT22;54794;48.348;7.878;2022-08-24T08:04:36;25.70;49.30
68011;DHT22;54794;48.348;7.878;2022-08-24T08:07:03;25.90;49.10
68011;DHT22;54794;48.348;7.878;2022-08-24T08:09:35;26.00;49.00
68011;DHT22;54794;48.348;7.878;2022-08-24T08:12:03;26.10;48.70
68011;DHT22;54794;48.348;7.878;2022-08-24T08:14:30;26.20;48.60
68011;DHT22;54794;48.348;7.878;2022-08-24T08:16:57;26.40;48.40
68011;DHT22;54794;48.348;7.878;2022-08-24T08:19:25;26.50;48.20
68011;DHT22;54794;48.348;7.878;2022-08-24T08:21:53;26.50;48.10
68011;DHT22;54794;48.348;7.878;2022-08-24T08:24:39;26.60;48.30
68011;DHT22;54794;48.348;7.878;2022-08-24T08:27:12;26.70;48.40
68011;DHT22;54794;48.348;7.878;2022-08-24T08:29:42;26.90;48.30
68011;DHT22;54794;48.348;7.878;2022-08-24T08:32:11;26.90;48.70
68011;DHT22;54794;48.348;7.878;2022-08-24T08:34:43;27.00;48.50
68011;DHT22;54794;48.348;7.878;2022-08-24T08:37:11;27.10;48.30
68011;DHT22;54794;48.348;7.878;2022-08-24T08:39:38;27.20;48.40
68011;DHT22;54794;48.348;7.878;2022-08-24T08:45:26;27.40;48.30
68011;DHT22;54794;48.348;7.878;2022-08-24T08:54:32;27.80;48.20
68011;DHT22;54794;48.348;7.878;2022-08-24T09:00:25;28.10;47.50
68011;DHT22;54794;48.348;7.878;2022-08-24T09:15:13;28.60;46.00
68011;DHT22;54794;48.348;7.878;2022-08-24T09:30:05;29.10;45.80
68011;DHT22;54794;48.348;7.878;2022-08-24T09:38:31;29.40;45.30
68011;DHT22;54794;48.348;7.878;2022-08-24T09:47:26;29.70;45.10
68011;DHT22;54794;48.348;7.878;2022-08-24T09:54:01;29.90;44.80
68011;DHT22;54794;48.348;7.878;2022-08-24T10:35:26;31.30;44.20
68011;DHT22;54794;48.348;7.878;2022-08-24T10:38:27;31.30;42.50
68011;DHT22;54794;48.348;7.878;2022-08-24T10:45:41;31.50;42.40
68011;DHT22;54794;48.348;7.878;2022-08-24T10:51:16;31.70;42.10
68011;DHT22;54794;48.348;7.878;2022-08-24T10:54:01;31.70;41.80
68011;DHT22;54794;48.348;7.878;2022-08-24T11:02:35;31.90;42.10
68011;DHT22;54794;48.348;7.878;2022-08-24T11:05:10;32.00;41.70
68011;DHT22;54794;48.348;7.878;2022-08-24T11:08:03;32.10;41.30
68011;DHT22;54794;48.348;7.878;2022-08-24T11:10:35;32.20;40.70
68011;DHT22;54794;48.348;7.878;2022-08-24T11:15:48;32.40;40.00
68011;DHT22;54794;48.348;7.878;2022-08-24T11:18:23;32.50;40.10
68011;DHT22;54794;48.348;7.878;2022-08-24T11:20:53;32.60;40.10
68011;DHT22;54794;48.348;7.878;2022-08-24T11:23:24;32.60;39.80
68011;DHT22;54794;48.348;7.878;2022-08-24T11:28:38;32.80;39.20
68011;DHT22;54794;48.348;7.878;2022-08-24T11:31:28;32.90;38.50
68011;DHT22;54794;48.348;7.878;2022-08-24T11:34:08;33.00;39.10
68011;DHT22;54794;48.348;7.878;2022-08-24T11:36:40;33.10;39.00
68011;DHT22;54794;48.348;7.878;2022-08-24T11:39:28;33.20;39.00
68011;DHT22;54794;48.348;7.878;2022-08-24T11:45:35;33.40;38.50
68011;DHT22;54794;48.348;7.878;2022-08-24T11:57:08;33.70;37.10
68011;DHT22;54794;48.348;7.878;2022-08-24T12:05:49;34.00;36.70
68011;DHT22;54794;48.348;7.878;2022-08-24T12:08:41;34.10;36.10
68011;DHT22;54794;48.348;7.878;2022-08-24T12:19:33;34.60;35.30
68011;DHT22;54794;48.348;7.878;2022-08-24T12:22:06;34.70;34.70
68011;DHT22;54794;48.348;7.878;2022-08-24T12:24:39;34.90;35.50
68011;DHT22;54794;48.348;7.878;2022-08-24T12:27:34;35.00;35.70
68011;DHT22;54794;48.348;7.878;2022-08-24T12:30:14;35.10;35.30
68011;DHT22;54794;48.348;7.878;2022-08-24T12:33:01;35.30;34.40
68011;DHT22;54794;48.348;7.878;2022-08-24T12:35:45;35.50;34.10
68011;DHT22;54794;48.348;7.878;2022-08-24T12:38:27;35.60;33.90
68011;DHT22;54794;48.348;7.878;2022-08-24T12:41:19;35.80;33.40
68011;DHT22;54794;48.348;7.878;2022-08-24T12:44:00;35.90;33.00
68011;DHT22;54794;48.348;7.878;2022-08-24T12:46:34;36.00;33.00
68011;DHT22;54794;48.348;7.878;2022-08-24T12:52:07;36.20;33.20
68011;DHT22;54794;48.348;7.878;2022-08-24T12:55:10;36.30;32.40
68011;DHT22;54794;48.348;7.878;2022-08-24T12:57:52;36.40;30.70
68011;DHT22;54794;48.348;7.878;2022-08-24T13:00:33;36.50;32.10
68011;DHT22;54794;48.348;7.878;2022-08-24T13:03:06;36.60;30.20
68011;DHT22;54794;48.348;7.878;2022-08-24T13:05:52;36.70;30.40
68011;DHT22;54794;48.348;7.878;2022-08-24T13:11:30;36.90;30.00
68011;DHT22;54794;48.348;7.878;2022-08-24T13:25:22;37.30;29.90
68011;DHT22;54794;48.348;7.878;2022-08-24T13:28:05;37.40;29.80
68011;DHT22;54794;48.348;7.878;2022-08-24T13:33:32;37.50;28.60
68011;DHT22;54794;48.348;7.878;2022-08-24T14:00:42;38.10;28.20
68011;DHT22;54794;48.348;7.878;2022-08-24T14:06:04;38.30;27.90
68011;DHT22;54794;48.348;7.878;2022-08-24T14:16:50;38.50;27.30
68011;DHT22;54794;48.348;7.878;2022-08-24T14:20:06;38.50;27.00
68011;DHT22;54794;48.348;7.878;2022-08-24T14:25:43;38.40;26.90
68011;DHT22;54794;48.348;7.878;2022-08-24T14:31:23;38.40;27.00
68011;DHT22;54794;48.348;7.878;2022-08-24T14:34:22;38.40;26.40
68011;DHT22;54794;48.348;7.878;2022-08-24T14:39:52;38.50;26.60
68011;DHT22;54794;48.348;7.878;2022-08-24T14:48:31;38.60;25.20
68011;DHT22;54794;48.348;7.878;2022-08-24T15:00:18;38.40;25.30
68011;DHT22;54794;48.348;7.878;2022-08-24T15:16:49;37.90;25.50
68011;DHT22;54794;48.348;7.878;2022-08-24T15:28:13;37.60;25.10
68011;DHT22;54794;48.348;7.878;2022-08-24T15:33:26;37.50;24.60
68011;DHT22;54794;48.348;7.878;2022-08-24T15:36:12;37.40;25.60
68011;DHT22;54794;48.348;7.878;2022-08-24T15:38:42;37.40;25.40
68011;DHT22;54794;48.348;7.878;2022-08-24T15:41:38;37.20;25.20
68011;DHT22;54794;48.348;7.878;2022-08-24T15:44:22;37.20;24.80
68011;DHT22;54794;48.348;7.878;2022-08-24T15:46:59;37.20;24.80
68011;DHT22;54794;48.348;7.878;2022-08-24T15:49:33;37.10;25.00
68011;DHT22;54794;48.348;7.878;2022-08-24T15:52:08;37.10;24.60
68011;DHT22;54794;48.348;7.878;2022-08-24T15:55:04;37.10;24.60
68011;DHT22;54794;48.348;7.878;2022-08-24T15:57:36;37.00;25.00
68011;DHT22;54794;48.348;7.878;2022-08-24T16:00:17;37.00;25.60
68011;DHT22;54794;48.348;7.878;2022-08-24T16:03:25;37.00;24.50
68011;DHT22;54794;48.348;7.878;2022-08-24T16:06:43;36.90;24.40
68011;DHT22;54794;48.348;7.878;2022-08-24T16:11:58;36.80;24.40
68011;DHT22;54794;48.348;7.878;2022-08-24T16:19:56;36.60;24.90
68011;DHT22;54794;48.348;7.878;2022-08-24T16:22:49;36.60;25.10
68011;DHT22;54794;48.348;7.878;2022-08-24T16:25:34;36.50;24.60
68011;DHT22;54794;48.348;7.878;2022-08-24T16:30:59;36.40;24.60
68011;DHT22;54794;48.348;7.878;2022-08-24T16:33:34;36.30;24.20
68011;DHT22;54794;48.348;7.878;2022-08-24T16:36:17;36.30;24.50
68011;DHT22;54794;48.348;7.878;2022-08-24T16:38:48;36.20;24.40
68011;DHT22;54794;48.348;7.878;2022-08-24T16:41:18;36.10;24.60
68011;DHT22;54794;48.348;7.878;2022-08-24T16:43:48;36.00;24.60
68011;DHT22;54794;48.348;7.878;2022-08-24T16:46:21;35.90;24.70
68011;DHT22;54794;48.348;7.878;2022-08-24T16:48:49;35.90;24.60
68011;DHT22;54794;48.348;7.878;2022-08-24T16:51:17;35.80;24.70
68011;DHT22;54794;48.348;7.878;2022-08-24T16:53:44;35.80;24.70
68011;DHT22;54794;48.348;7.878;2022-08-24T16:56:11;35.70;24.80
68011;DHT22;54794;48.348;7.878;2022-08-24T16:58:44;35.60;24.80
68011;DHT22;54794;48.348;7.878;2022-08-24T17:01:13;35.50;24.70
68011;DHT22;54794;48.348;7.878;2022-08-24T17:03:41;35.40;24.80
68011;DHT22;54794;48.348;7.878;2022-08-24T17:06:09;35.30;24.90
68011;DHT22;54794;48.348;7.878;2022-08-24T17:08:40;35.30;24.90
68011;DHT22;54794;48.348;7.878;2022-08-24T17:11:07;35.10;24.80
68011;DHT22;54794;48.348;7.878;2022-08-24T17:13:34;35.10;25.00
68011;DHT22;54794;48.348;7.878;2022-08-24T17:16:18;35.00;24.90
68011;DHT22;54794;48.348;7.878;2022-08-24T17:18:46;34.90;25.00
68011;DHT22;54794;48.348;7.878;2022-08-24T17:21:14;34.80;25.40
68011;DHT22;54794;48.348;7.878;2022-08-24T17:23:41;34.60;25.00
68011;DHT22;54794;48.348;7.878;2022-08-24T17:26:11;34.60;25.20
68011;DHT22;54794;48.348;7.878;2022-08-24T17:28:47;34.50;25.00
68011;DHT22;54794;48.348;7.878;2022-08-24T17:31:15;34.40;25.20
68011;DHT22;54794;48.348;7.878;2022-08-24T17:33:42;34.30;25.20
68011;DHT22;54794;48.348;7.878;2022-08-24T17:36:19;34.20;25.10
68011;DHT22;54794;48.348;7.878;2022-08-24T17:38:58;34.10;25.10
68011;DHT22;54794;48.348;7.878;2022-08-24T17:41:26;34.00;25.20
68011;DHT22;54794;48.348;7.878;2022-08-24T17:43:53;33.90;25.40
68011;DHT22;54794;48.348;7.878;2022-08-24T17:46:21;33.80;25.30
68011;DHT22;54794;48.348;7.878;2022-08-24T17:48:49;33.70;25.30
68011;DHT22;54794;48.348;7.878;2022-08-24T17:51:17;33.60;25.50
68011;DHT22;54794;48.348;7.878;2022-08-24T17:53:45;33.50;25.60
68011;DHT22;54794;48.348;7.878;2022-08-24T17:56:13;33.40;25.50
68011;DHT22;54794;48.348;7.878;2022-08-24T17:58:41;33.30;25.60
68011;DHT22;54794;48.348;7.878;2022-08-24T18:01:28;33.20;25.70
68011;DHT22;54794;48.348;7.878;2022-08-24T18:03:56;33.10;25.60
68011;DHT22;54794;48.348;7.878;2022-08-24T18:06:25;33.00;25.60
68011;DHT22;54794;48.348;7.878;2022-08-24T18:08:53;32.90;26.10
68011;DHT22;54794;48.348;7.878;2022-08-24T18:11:23;32.90;25.80
68011;DHT22;54794;48.348;7.878;2022-08-24T18:13:52;32.80;25.90
68011;DHT22;54794;48.348;7.878;2022-08-24T18:16:22;32.70;25.80
68011;DHT22;54794;48.348;7.878;2022-08-24T18:18:51;32.60;25.90
68011;DHT22;54794;48.348;7.878;2022-08-24T18:21:19;32.50;26.10
68011;DHT22;54794;48.348;7.878;2022-08-24T18:23:48;32.50;26.20
68011;DHT22;54794;48.348;7.878;2022-08-24T18:26:27;32.40;26.00
68011;DHT22;54794;48.348;7.878;2022-08-24T18:28:59;32.30;26.20
68011;DHT22;54794;48.348;7.878;2022-08-24T18:31:34;32.20;26.20
68011;DHT22;54794;48.348;7.878;2022-08-24T18:34:01;32.10;26.20
68011;DHT22;54794;48.348;7.878;2022-08-24T18:36:28;32.10;26.00
68011;DHT22;54794;48.348;7.878;2022-08-24T18:38:55;32.00;26.30
68011;DHT22;54794;48.348;7.878;2022-08-24T18:41:24;32.00;26.50
68011;DHT22;54794;48.348;7.878;2022-08-24T18:43:58;31.90;26.70
68011;DHT22;54794;48.348;7.878;2022-08-24T18:46:27;31.80;26.70
68011;DHT22;54794;48.348;7.878;2022-08-24T18:48:56;31.70;26.90
68011;DHT22;54794;48.348;7.878;2022-08-24T18:51:26;31.60;26.90
68011;DHT22;54794;48.348;7.878;2022-08-24T18:54:03;31.60;27.20
68011;DHT22;54794;48.348;7.878;2022-08-24T18:56:51;31.60;27.20
68011;DHT22;54794;48.348;7.878;2022-08-24T18:59:19;31.50;27.30
68011;DHT22;54794;48.348;7.878;2022-08-24T19:01:49;31.50;26.90
68011;DHT22;54794;48.348;7.878;2022-08-24T19:07:35;31.30;27.80
68011;DHT22;54794;48.348;7.878;2022-08-24T19:10:06;31.20;27.60
68011;DHT22;54794;48.348;7.878;2022-08-24T19:12:46;31.10;27.90
68011;DHT22;54794;48.348;7.878;2022-08-24T19:15:16;31.10;28.40
68011;DHT22;54794;48.348;7.878;2022-08-24T19:18:03;31.10;28.20
68011;DHT22;54794;48.348;7.878;2022-08-24T19:20:31;31.10;27.70
68011;DHT22;54794;48.348;7.878;2022-08-24T19:23:08;31.00;28.40
68011;DHT22;54794;48.348;7.878;2022-08-24T19:25:42;30.90;28.80
68011;DHT22;54794;48.348;7.878;2022-08-24T19:28:10;30.90;28.70
68011;DHT22;54794;48.348;7.878;2022-08-24T19:30:37;30.80;28.90
68011;DHT22;54794;48.348;7.878;2022-08-24T19:33:05;30.80;28.10
68011;DHT22;54794;48.348;7.878;2022-08-24T19:35:40;30.80;29.00
68011;DHT22;54794;48.348;7.878;2022-08-24T19:38:13;30.70;29.20
68011;DHT22;54794;48.348;7.878;2022-08-24T19:40:42;30.70;29.40
68011;DHT22;54794;48.348;7.878;2022-08-24T19:43:14;30.70;29.50
68011;DHT22;54794;48.348;7.878;2022-08-24T19:45:57;30.60;29.70
68011;DHT22;54794;48.348;7.878;2022-08-24T19:48:37;30.50;29.80
68011;DHT22;54794;48.348;7.878;2022-08-24T19:51:08;30.50;29.80
68011;DHT22;54794;48.348;7.878;2022-08-24T19:53:37;30.40;30.00
68011;DHT22;54794;48.348;7.878;2022-08-24T19:56:06;30.40;29.90
68011;DHT22;54794;48.348;7.878;2022-08-24T19:58:42;30.30;30.00
68011;DHT22;54794;48.348;7.878;2022-08-24T20:01:24;30.20;30.60
68011;DHT22;54794;48.348;7.878;2022-08-24T20:03:54;30.10;30.20
68011;DHT22;54794;48.348;7.878;2022-08-24T20:06:23;30.10;30.40
68011;DHT22;54794;48.348;7.878;2022-08-24T20:08:51;30.10;30.40
68011;DHT22;54794;48.348;7.878;2022-08-24T20:11:19;30.00;30.70
68011;DHT22;54794;48.348;7.878;2022-08-24T20:13:51;29.90;30.70
68011;DHT22;54794;48.348;7.878;2022-08-24T20:16:20;29.80;30.90
68011;DHT22;54794;48.348;7.878;2022-08-24T20:18:48;29.70;31.10
68011;DHT22;54794;48.348;7.878;2022-08-24T20:21:16;29.70;31.20
68011;DHT22;54794;48.348;7.878;2022-08-24T20:23:43;29.70;31.50
68011;DHT22;54794;48.348;7.878;2022-08-24T20:26:11;29.60;31.70